This is the latest recevied weather packets stored in our database for station/object Seibranz. If no packets are shown the sender has not sent any weather packets the latest 10 day(s).
| Time | Temp. | Humidity | Pressure | Rain* | Wind** | Luminosity | Snow |
|---|---|---|---|---|---|---|---|
| 1777723330 | 20.56° C | 47% | 1020 hPa | 0 mm | - | - | - |
| 1777721531 | 20.56° C | 47% | 1020.4 hPa | 0 mm | - | - | - |
| 1777719731 | 20° C | 53% | 1020.8 hPa | 0 mm | - | - | - |
| 1777717930 | 20° C | 50% | 1021.2 hPa | 0 mm | - | - | - |
| 1777716131 | 19.44° C | 52% | 1021.5 hPa | 0 mm | - | - | - |
| 1777714331 | 18.89° C | 53% | 1021.6 hPa | 0 mm | - | - | - |
| 1777712531 | 17.78° C | 53% | 1021.9 hPa | 0 mm | - | - | - |
| 1777710731 | 16.67° C | 57% | 1022 hPa | 0 mm | - | - | - |
| 1777708931 | 15.56° C | 58% | 1022.3 hPa | 0 mm | - | - | - |
| 1777707130 | 14.44° C | 61% | 1022.4 hPa | 0 mm | - | - | - |
| 1777705333 | 13.33° C | 61% | 1022.4 hPa | 0 mm | - | - | - |
| 1777703532 | 12.22° C | 69% | 1022.4 hPa | 0 mm | - | - | - |
| 1777701731 | 11.11° C | 69% | 1022.5 hPa | 0 mm | - | - | - |
| 1777699931 | 10.56° C | 72% | 1022.4 hPa | 0 mm | - | - | - |
| 1777698131 | 8.89° C | 73% | 1022.3 hPa | 0 mm | - | - | - |
| 1777696331 | 5.56° C | 85% | 1022 hPa | 0 mm | - | - | - |
| 1777694533 | 4.44° C | 87% | 1022.1 hPa | 0 mm | - | - | - |
| 1777692731 | 2.22° C | 85% | 1022.1 hPa | 0 mm | - | - | - |
| 1777690931 | 2.22° C | 84% | 1022.1 hPa | 0 mm | - | - | - |
| 1777689134 | 2.78° C | 84% | 1022.3 hPa | 0 mm | - | - | - |
| 1777687332 | 3.33° C | 80% | 1022.2 hPa | 0 mm | - | - | - |
| 1777685531 | 3.89° C | 78% | 1022.5 hPa | 0 mm | - | - | - |
| 1777683731 | 5° C | 74% | 1022.5 hPa | 0 mm | - | - | - |
| 1777681929 | 6.67° C | 69% | 1022.7 hPa | 0 mm | - | - | - |
| 1777680129 | 7.78° C | 66% | 1022.9 hPa | 0 mm | - | - | - |
* Rain since midnight (hover to see other rain measurements)
** Current wind speed in m/s (hover to see current wind gust speed)